sensor_id;sensor_type;location;lat;lon;timestamp;noise_LAeq;noise_LA_min;noise_LA_max;noise_LA01;noise_LA95
75037;Laerm;64247;51.540;5.854;2023-04-25T00:01:14;49.01;44.89;58.41;;
75037;Laerm;64247;51.540;5.854;2023-04-25T00:03:15;49.91;44.55;60.45;;
75037;Laerm;64247;51.540;5.854;2023-04-25T00:05:17;50.58;44.90;64.25;;
75037;Laerm;64247;51.540;5.854;2023-04-25T00:07:18;47.61;44.42;54.99;;
75037;Laerm;64247;51.540;5.854;2023-04-25T00:09:18;49.13;45.16;56.40;;
75037;Laerm;64247;51.540;5.854;2023-04-25T00:11:19;47.14;45.05;54.37;;
75037;Laerm;64247;51.540;5.854;2023-04-25T00:13:20;50.17;45.16;60.25;;
75037;Laerm;64247;51.540;5.854;2023-04-25T00:15:22;51.22;45.49;60.24;;
75037;Laerm;64247;51.540;5.854;2023-04-25T00:17:23;48.98;45.43;57.04;;
75037;Laerm;64247;51.540;5.854;2023-04-25T00:19:27;48.52;45.16;54.75;;
75037;Laerm;64247;51.540;5.854;2023-04-25T00:21:30;49.65;45.18;56.14;;
75037;Laerm;64247;51.540;5.854;2023-04-25T00:23:32;47.54;45.48;51.48;;
75037;Laerm;64247;51.540;5.854;2023-04-25T00:25:33;47.18;45.07;52.88;;
75037;Laerm;64247;51.540;5.854;2023-04-25T00:27:33;50.12;45.37;59.26;;
75037;Laerm;64247;51.540;5.854;2023-04-25T00:29:34;48.65;45.46;55.48;;
75037;Laerm;64247;51.540;5.854;2023-04-25T00:31:35;48.12;45.21;56.85;;
75037;Laerm;64247;51.540;5.854;2023-04-25T00:33:36;51.06;45.92;59.66;;
75037;Laerm;64247;51.540;5.854;2023-04-25T00:35:37;49.85;45.20;58.59;;
75037;Laerm;64247;51.540;5.854;2023-04-25T00:37:39;49.42;45.30;58.03;;
75037;Laerm;64247;51.540;5.854;2023-04-25T00:39:40;48.73;45.18;57.40;;
75037;Laerm;64247;51.540;5.854;2023-04-25T00:41:41;50.67;45.54;62.50;;
75037;Laerm;64247;51.540;5.854;2023-04-25T00:43:44;48.53;45.47;54.16;;
75037;Laerm;64247;51.540;5.854;2023-04-25T00:45:47;47.06;45.16;50.22;;
75037;Laerm;64247;51.540;5.854;2023-04-25T00:47:49;49.80;45.21;57.96;;
75037;Laerm;64247;51.540;5.854;2023-04-25T00:49:50;50.73;45.76;58.70;;
75037;Laerm;64247;51.540;5.854;2023-04-25T00:51:51;48.04;44.43;55.08;;
75037;Laerm;64247;51.540;5.854;2023-04-25T00:53:52;48.42;45.03;55.40;;
75037;Laerm;64247;51.540;5.854;2023-04-25T00:55:55;49.20;44.77;57.72;;
75037;Laerm;64247;51.540;5.854;2023-04-25T00:57:57;46.86;44.78;50.66;;
75037;Laerm;64247;51.540;5.854;2023-04-25T00:59:59;46.50;44.33;48.89;;
75037;Laerm;64247;51.540;5.854;2023-04-25T01:02:00;47.87;44.80;55.79;;
75037;Laerm;64247;51.540;5.854;2023-04-25T01:04:02;46.92;44.54;54.83;;
75037;Laerm;64247;51.540;5.854;2023-04-25T01:06:03;47.31;44.83;57.01;;
75037;Laerm;64247;51.540;5.854;2023-04-25T01:08:05;51.61;45.21;60.29;;
75037;Laerm;64247;51.540;5.854;2023-04-25T01:10:06;48.08;44.70;54.34;;
75037;Laerm;64247;51.540;5.854;2023-04-25T01:12:08;47.62;44.74;55.41;;
75037;Laerm;64247;51.540;5.854;2023-04-25T01:14:09;47.71;45.02;53.21;;
75037;Laerm;64247;51.540;5.854;2023-04-25T01:16:10;46.94;44.95;50.66;;
75037;Laerm;64247;51.540;5.854;2023-04-25T01:18:12;47.40;45.01;52.09;;
75037;Laerm;64247;51.540;5.854;2023-04-25T01:20:14;47.09;44.94;49.62;;
75037;Laerm;64247;51.540;5.854;2023-04-25T01:22:15;47.12;45.12;49.42;;
75037;Laerm;64247;51.540;5.854;2023-04-25T01:24:17;48.10;44.68;54.94;;
75037;Laerm;64247;51.540;5.854;2023-04-25T01:26:19;47.44;45.21;55.05;;
75037;Laerm;64247;51.540;5.854;2023-04-25T01:28:22;47.35;45.23;51.67;;
75037;Laerm;64247;51.540;5.854;2023-04-25T01:30:23;46.82;45.10;48.87;;
75037;Laerm;64247;51.540;5.854;2023-04-25T01:32:26;48.65;45.14;58.03;;
75037;Laerm;64247;51.540;5.854;2023-04-25T01:34:29;47.51;45.33;57.48;;
75037;Laerm;64247;51.540;5.854;2023-04-25T01:36:32;48.84;44.89;54.41;;
75037;Laerm;64247;51.540;5.854;2023-04-25T01:38:35;48.17;45.19;55.94;;
75037;Laerm;64247;51.540;5.854;2023-04-25T01:40:40;49.57;45.51;57.49;;
75037;Laerm;64247;51.540;5.854;2023-04-25T01:42:43;47.98;45.19;53.74;;
75037;Laerm;64247;51.540;5.854;2023-04-25T01:44:44;47.90;45.13;55.30;;
75037;Laerm;64247;51.540;5.854;2023-04-25T01:46:45;47.64;45.35;52.58;;
75037;Laerm;64247;51.540;5.854;2023-04-25T01:48:46;47.56;45.11;52.76;;
75037;Laerm;64247;51.540;5.854;2023-04-25T01:50:48;47.76;45.28;54.99;;
75037;Laerm;64247;51.540;5.854;2023-04-25T01:52:49;46.62;44.67;51.42;;
75037;Laerm;64247;51.540;5.854;2023-04-25T01:54:51;46.45;44.46;48.80;;
75037;Laerm;64247;51.540;5.854;2023-04-25T01:56:53;46.55;44.56;50.05;;
75037;Laerm;64247;51.540;5.854;2023-04-25T01:58:56;48.00;44.63;55.64;;
75037;Laerm;64247;51.540;5.854;2023-04-25T02:01:23;49.10;44.53;58.98;;
75037;Laerm;64247;51.540;5.854;2023-04-25T02:03:43;46.36;44.49;49.35;;
75037;Laerm;64247;51.540;5.854;2023-04-25T02:06:02;46.36;44.43;48.98;;
75037;Laerm;64247;51.540;5.854;2023-04-25T02:08:08;46.80;44.66;52.26;;
75037;Laerm;64247;51.540;5.854;2023-04-25T02:10:09;47.93;45.12;52.95;;
75037;Laerm;64247;51.540;5.854;2023-04-25T02:12:17;48.46;45.27;56.85;;
75037;Laerm;64247;51.540;5.854;2023-04-25T02:14:44;47.76;45.05;52.73;;
75037;Laerm;64247;51.540;5.854;2023-04-25T02:17:05;49.21;45.36;57.79;;
75037;Laerm;64247;51.540;5.854;2023-04-25T02:19:06;47.28;45.33;52.89;;
75037;Laerm;64247;51.540;5.854;2023-04-25T02:21:07;53.62;46.25;66.98;;
75037;Laerm;64247;51.540;5.854;2023-04-25T02:23:08;48.34;45.67;56.40;;
75037;Laerm;64247;51.540;5.854;2023-04-25T02:25:10;49.12;45.79;56.99;;
75037;Laerm;64247;51.540;5.854;2023-04-25T02:27:12;51.04;46.19;59.64;;
75037;Laerm;64247;51.540;5.854;2023-04-25T02:29:13;50.69;45.05;58.96;;
75037;Laerm;64247;51.540;5.854;2023-04-25T02:31:16;48.55;45.25;55.41;;
75037;Laerm;64247;51.540;5.854;2023-04-25T02:33:17;47.02;45.02;50.18;;
75037;Laerm;64247;51.540;5.854;2023-04-25T02:35:18;48.19;44.98;55.03;;
75037;Laerm;64247;51.540;5.854;2023-04-25T02:37:20;47.77;44.96;53.98;;
75037;Laerm;64247;51.540;5.854;2023-04-25T02:39:21;46.74;44.41;51.31;;
75037;Laerm;64247;51.540;5.854;2023-04-25T02:41:23;48.36;44.65;56.78;;
75037;Laerm;64247;51.540;5.854;2023-04-25T02:43:25;47.51;44.97;54.51;;
75037;Laerm;64247;51.540;5.854;2023-04-25T02:45:26;47.54;45.32;54.15;;
75037;Laerm;64247;51.540;5.854;2023-04-25T02:47:27;51.67;45.68;60.04;;
75037;Laerm;64247;51.540;5.854;2023-04-25T02:49:28;50.58;44.98;60.50;;
75037;Laerm;64247;51.540;5.854;2023-04-25T02:51:29;46.69;44.46;48.52;;
75037;Laerm;64247;51.540;5.854;2023-04-25T02:53:30;49.69;44.65;59.25;;
75037;Laerm;64247;51.540;5.854;2023-04-25T02:55:31;52.68;47.30;65.30;;
75037;Laerm;64247;51.540;5.854;2023-04-25T02:57:35;51.62;46.15;59.57;;
75037;Laerm;64247;51.540;5.854;2023-04-25T02:59:36;49.79;45.10;57.08;;
75037;Laerm;64247;51.540;5.854;2023-04-25T03:01:36;47.10;44.62;68.89;;
75037;Laerm;64247;51.540;5.854;2023-04-25T03:03:37;46.68;44.78;48.44;;
75037;Laerm;64247;51.540;5.854;2023-04-25T03:05:38;46.70;44.88;48.80;;
75037;Laerm;64247;51.540;5.854;2023-04-25T03:07:39;50.29;45.37;58.28;;
75037;Laerm;64247;51.540;5.854;2023-04-25T03:09:40;47.52;45.01;51.64;;
75037;Laerm;64247;51.540;5.854;2023-04-25T03:11:43;49.18;45.53;56.80;;
75037;Laerm;64247;51.540;5.854;2023-04-25T03:13:44;49.66;45.38;55.00;;
75037;Laerm;64247;51.540;5.854;2023-04-25T03:15:45;51.00;45.35;64.07;;
75037;Laerm;64247;51.540;5.854;2023-04-25T03:17:46;51.03;46.66;55.94;;
75037;Laerm;64247;51.540;5.854;2023-04-25T03:19:47;52.48;46.73;58.67;;
75037;Laerm;64247;51.540;5.854;2023-04-25T03:21:48;50.37;46.65;59.12;;
75037;Laerm;64247;51.540;5.854;2023-04-25T03:23:49;49.58;45.99;58.43;;
75037;Laerm;64247;51.540;5.854;2023-04-25T03:25:50;52.77;47.80;61.90;;
75037;Laerm;64247;51.540;5.854;2023-04-25T03:27:51;50.75;46.16;60.34;;
75037;Laerm;64247;51.540;5.854;2023-04-25T03:29:52;49.95;46.20;58.35;;
75037;Laerm;64247;51.540;5.854;2023-04-25T03:31:53;51.82;46.88;67.52;;
75037;Laerm;64247;51.540;5.854;2023-04-25T03:33:54;53.71;46.55;69.56;;
75037;Laerm;64247;51.540;5.854;2023-04-25T03:35:57;56.21;46.74;71.13;;
75037;Laerm;64247;51.540;5.854;2023-04-25T03:37:58;56.98;48.62;70.90;;
75037;Laerm;64247;51.540;5.854;2023-04-25T03:40:04;54.75;47.32;71.11;;
75037;Laerm;64247;51.540;5.854;2023-04-25T03:42:25;56.43;47.15;70.45;;
75037;Laerm;64247;51.540;5.854;2023-04-25T03:44:26;56.85;47.08;70.52;;
75037;Laerm;64247;51.540;5.854;2023-04-25T03:46:26;55.85;47.27;69.99;;
75037;Laerm;64247;51.540;5.854;2023-04-25T03:48:27;57.11;48.34;71.66;;
75037;Laerm;64247;51.540;5.854;2023-04-25T03:50:28;57.95;47.04;69.94;;
75037;Laerm;64247;51.540;5.854;2023-04-25T03:52:29;59.95;49.08;76.16;;
75037;Laerm;64247;51.540;5.854;2023-04-25T03:54:30;57.77;48.74;71.44;;
75037;Laerm;64247;51.540;5.854;2023-04-25T03:56:39;58.77;49.92;69.59;;
75037;Laerm;64247;51.540;5.854;2023-04-25T03:58:50;58.71;47.74;71.51;;
75037;Laerm;64247;51.540;5.854;2023-04-25T04:00:53;56.77;48.94;68.87;;
75037;Laerm;64247;51.540;5.854;2023-04-25T04:02:54;56.79;48.06;67.95;;
75037;Laerm;64247;51.540;5.854;2023-04-25T04:04:55;60.73;49.44;80.68;;
75037;Laerm;64247;51.540;5.854;2023-04-25T04:06:57;58.48;48.12;70.33;;
75037;Laerm;64247;51.540;5.854;2023-04-25T04:09:01;58.81;47.79;70.57;;
75037;Laerm;64247;51.540;5.854;2023-04-25T04:11:02;56.72;48.32;66.22;;
75037;Laerm;64247;51.540;5.854;2023-04-25T04:13:03;56.33;47.65;66.60;;
75037;Laerm;64247;51.540;5.854;2023-04-25T04:15:05;56.07;49.16;66.06;;
75037;Laerm;64247;51.540;5.854;2023-04-25T04:17:07;55.66;50.47;65.54;;
75037;Laerm;64247;51.540;5.854;2023-04-25T04:19:08;56.21;48.50;65.54;;
75037;Laerm;64247;51.540;5.854;2023-04-25T04:21:10;57.28;49.69;71.62;;
75037;Laerm;64247;51.540;5.854;2023-04-25T04:23:14;58.62;48.58;68.60;;
75037;Laerm;64247;51.540;5.854;2023-04-25T04:25:15;56.89;49.06;67.19;;
75037;Laerm;64247;51.540;5.854;2023-04-25T04:27:34;56.93;50.27;68.11;;
75037;Laerm;64247;51.540;5.854;2023-04-25T04:29:55;57.65;49.76;68.75;;
75037;Laerm;64247;51.540;5.854;2023-04-25T04:32:14;57.53;48.36;69.77;;
75037;Laerm;64247;51.540;5.854;2023-04-25T04:34:15;57.98;48.10;68.91;;
75037;Laerm;64247;51.540;5.854;2023-04-25T04:36:17;58.48;49.96;69.66;;
75037;Laerm;64247;51.540;5.854;2023-04-25T04:38:21;57.15;48.71;68.98;;
75037;Laerm;64247;51.540;5.854;2023-04-25T04:40:22;56.70;48.52;69.22;;
75037;Laerm;64247;51.540;5.854;2023-04-25T04:42:28;57.72;50.43;69.60;;
75037;Laerm;64247;51.540;5.854;2023-04-25T04:44:41;56.51;49.35;69.61;;
75037;Laerm;64247;51.540;5.854;2023-04-25T04:47:03;55.70;51.78;67.24;;
75037;Laerm;64247;51.540;5.854;2023-04-25T04:49:27;55.26;51.51;65.47;;
75037;Laerm;64247;51.540;5.854;2023-04-25T04:51:46;54.50;49.90;63.86;;
75037;Laerm;64247;51.540;5.854;2023-04-25T04:54:06;55.63;50.32;69.08;;
75037;Laerm;64247;51.540;5.854;2023-04-25T04:56:25;56.01;51.22;67.31;;
75037;Laerm;64247;51.540;5.854;2023-04-25T04:58:40;54.73;49.17;66.77;;
75037;Laerm;64247;51.540;5.854;2023-04-25T05:01:01;55.02;50.65;64.40;;
75037;Laerm;64247;51.540;5.854;2023-04-25T05:03:23;54.59;49.58;63.22;;
75037;Laerm;64247;51.540;5.854;2023-04-25T05:05:43;55.52;48.09;61.91;;
75037;Laerm;64247;51.540;5.854;2023-04-25T05:08:07;55.46;50.37;64.56;;
75037;Laerm;64247;51.540;5.854;2023-04-25T05:10:27;55.02;49.73;63.53;;
75037;Laerm;64247;51.540;5.854;2023-04-25T05:12:51;56.66;48.73;68.63;;
75037;Laerm;64247;51.540;5.854;2023-04-25T05:15:11;56.27;50.90;67.41;;
75037;Laerm;64247;51.540;5.854;2023-04-25T05:17:27;55.34;49.37;64.69;;
75037;Laerm;64247;51.540;5.854;2023-04-25T05:19:36;56.31;49.64;66.17;;
75037;Laerm;64247;51.540;5.854;2023-04-25T05:21:55;57.39;50.68;70.60;;
75037;Laerm;64247;51.540;5.854;2023-04-25T05:24:31;55.72;49.22;67.42;;
75037;Laerm;64247;51.540;5.854;2023-04-25T05:26:57;55.95;50.76;64.25;;
75037;Laerm;64247;51.540;5.854;2023-04-25T05:29:17;55.05;49.76;65.99;;
75037;Laerm;64247;51.540;5.854;2023-04-25T05:31:38;57.63;49.88;69.84;;
75037;Laerm;64247;51.540;5.854;2023-04-25T05:33:44;57.39;51.30;70.60;;
75037;Laerm;64247;51.540;5.854;2023-04-25T05:35:45;57.49;50.12;70.99;;
75037;Laerm;64247;51.540;5.854;2023-04-25T05:37:46;56.76;49.65;69.51;;
75037;Laerm;64247;51.540;5.854;2023-04-25T05:39:48;55.01;49.68;69.51;;
75037;Laerm;64247;51.540;5.854;2023-04-25T05:42:01;54.99;50.29;60.53;;
75037;Laerm;64247;51.540;5.854;2023-04-25T05:44:20;58.46;51.33;67.56;;
75037;Laerm;64247;51.540;5.854;2023-04-25T05:46:33;64.06;57.72;73.46;;
75037;Laerm;64247;51.540;5.854;2023-04-25T05:49:00;62.67;56.38;79.93;;
75037;Laerm;64247;51.540;5.854;2023-04-25T05:51:30;63.56;52.77;70.97;;
75037;Laerm;64247;51.540;5.854;2023-04-25T05:53:54;59.53;54.41;68.45;;
75037;Laerm;64247;51.540;5.854;2023-04-25T05:55:56;58.26;52.61;68.70;;
75037;Laerm;64247;51.540;5.854;2023-04-25T05:57:59;63.50;53.12;71.08;;
75037;Laerm;64247;51.540;5.854;2023-04-25T06:00:01;66.98;52.75;74.46;;
75037;Laerm;64247;51.540;5.854;2023-04-25T06:02:22;66.50;51.80;74.64;;
75037;Laerm;64247;51.540;5.854;2023-04-25T06:04:25;64.84;51.41;79.28;;
75037;Laerm;64247;51.540;5.854;2023-04-25T06:06:26;53.12;47.02;61.95;;
75037;Laerm;64247;51.540;5.854;2023-04-25T06:08:28;53.26;48.67;64.91;;
75037;Laerm;64247;51.540;5.854;2023-04-25T06:10:29;51.65;47.99;58.65;;
75037;Laerm;64247;51.540;5.854;2023-04-25T06:12:29;56.72;49.24;71.31;;
75037;Laerm;64247;51.540;5.854;2023-04-25T06:14:31;63.54;49.08;73.12;;
75037;Laerm;64247;51.540;5.854;2023-04-25T06:16:32;53.53;48.25;64.72;;
75037;Laerm;64247;51.540;5.854;2023-04-25T06:18:33;53.40;47.97;64.53;;
75037;Laerm;64247;51.540;5.854;2023-04-25T06:20:34;54.78;49.89;62.19;;
75037;Laerm;64247;51.540;5.854;2023-04-25T06:22:35;56.12;48.25;71.89;;
75037;Laerm;64247;51.540;5.854;2023-04-25T06:24:36;56.87;49.89;75.12;;
75037;Laerm;64247;51.540;5.854;2023-04-25T06:26:38;53.56;48.73;63.82;;
75037;Laerm;64247;51.540;5.854;2023-04-25T06:28:40;55.33;49.46;65.18;;
75037;Laerm;64247;51.540;5.854;2023-04-25T06:30:41;56.19;50.55;66.43;;
75037;Laerm;64247;51.540;5.854;2023-04-25T06:32:46;55.13;49.27;67.91;;
75037;Laerm;64247;51.540;5.854;2023-04-25T06:34:47;56.59;47.46;69.80;;
75037;Laerm;64247;51.540;5.854;2023-04-25T06:36:47;56.14;46.52;71.18;;
75037;Laerm;64247;51.540;5.854;2023-04-25T06:38:51;54.59;48.87;66.36;;
75037;Laerm;64247;51.540;5.854;2023-04-25T06:40:53;50.41;46.85;64.50;;
75037;Laerm;64247;51.540;5.854;2023-04-25T06:42:53;51.39;46.88;69.88;;
75037;Laerm;64247;51.540;5.854;2023-04-25T06:45:08;53.45;46.51;74.12;;
75037;Laerm;64247;51.540;5.854;2023-04-25T06:47:09;56.19;46.76;70.09;;
75037;Laerm;64247;51.540;5.854;2023-04-25T06:49:11;63.08;48.52;72.58;;
75037;Laerm;64247;51.540;5.854;2023-04-25T06:51:12;59.82;50.66;67.77;;
75037;Laerm;64247;51.540;5.854;2023-04-25T06:53:14;59.08;47.65;69.96;;
75037;Laerm;64247;51.540;5.854;2023-04-25T06:55:18;59.67;48.26;71.06;;
75037;Laerm;64247;51.540;5.854;2023-04-25T06:57:37;60.41;46.26;70.16;;
75037;Laerm;64247;51.540;5.854;2023-04-25T07:00:17;58.32;46.77;71.25;;
75037;Laerm;64247;51.540;5.854;2023-04-25T07:02:18;52.29;45.59;68.09;;
75037;Laerm;64247;51.540;5.854;2023-04-25T07:04:19;51.69;45.89;71.69;;
75037;Laerm;64247;51.540;5.854;2023-04-25T07:06:24;55.38;46.75;72.20;;
75037;Laerm;64247;51.540;5.854;2023-04-25T07:08:29;56.36;45.96;72.00;;
75037;Laerm;64247;51.540;5.854;2023-04-25T07:10:31;58.72;47.61;74.04;;
75037;Laerm;64247;51.540;5.854;2023-04-25T07:12:32;54.80;46.97;72.78;;
75037;Laerm;64247;51.540;5.854;2023-04-25T07:14:34;55.26;45.71;70.95;;
75037;Laerm;64247;51.540;5.854;2023-04-25T07:16:35;54.60;46.00;73.41;;
75037;Laerm;64247;51.540;5.854;2023-04-25T07:18:36;56.73;47.01;71.44;;
75037;Laerm;64247;51.540;5.854;2023-04-25T07:20:38;62.39;49.21;76.68;;
75037;Laerm;64247;51.540;5.854;2023-04-25T07:22:38;64.81;47.52;77.97;;
75037;Laerm;64247;51.540;5.854;2023-04-25T07:24:40;54.89;46.91;66.62;;
75037;Laerm;64247;51.540;5.854;2023-04-25T07:26:41;53.27;46.17;64.58;;
75037;Laerm;64247;51.540;5.854;2023-04-25T07:29:05;51.27;45.93;66.42;;
75037;Laerm;64247;51.540;5.854;2023-04-25T07:31:06;56.71;46.31;66.89;;
75037;Laerm;64247;51.540;5.854;2023-04-25T07:33:07;53.32;46.69;66.67;;
75037;Laerm;64247;51.540;5.854;2023-04-25T07:35:08;53.55;45.97;75.31;;
75037;Laerm;64247;51.540;5.854;2023-04-25T07:37:09;53.04;46.92;66.97;;
75037;Laerm;64247;51.540;5.854;2023-04-25T07:39:21;54.24;46.90;72.92;;
75037;Laerm;64247;51.540;5.854;2023-04-25T07:41:23;49.63;45.32;60.94;;
75037;Laerm;64247;51.540;5.854;2023-04-25T07:43:24;52.27;45.91;69.08;;
75037;Laerm;64247;51.540;5.854;2023-04-25T07:45:32;54.57;47.70;68.00;;
75037;Laerm;64247;51.540;5.854;2023-04-25T07:47:33;53.30;46.99;64.77;;
75037;Laerm;64247;51.540;5.854;2023-04-25T07:49:35;54.14;47.25;71.09;;
75037;Laerm;64247;51.540;5.854;2023-04-25T07:51:37;53.31;46.07;66.27;;
75037;Laerm;64247;51.540;5.854;2023-04-25T07:53:43;57.89;46.05;70.81;;
75037;Laerm;64247;51.540;5.854;2023-04-25T07:55:47;52.49;45.16;66.35;;
75037;Laerm;64247;51.540;5.854;2023-04-25T07:57:51;54.37;45.32;66.92;;
75037;Laerm;64247;51.540;5.854;2023-04-25T07:59:52;55.30;49.00;67.14;;
75037;Laerm;64247;51.540;5.854;2023-04-25T08:01:54;52.95;47.94;63.47;;
75037;Laerm;64247;51.540;5.854;2023-04-25T08:03:56;54.44;48.25;68.22;;
75037;Laerm;64247;51.540;5.854;2023-04-25T08:06:04;59.16;47.11;73.19;;
75037;Laerm;64247;51.540;5.854;2023-04-25T08:08:08;53.03;45.84;72.07;;
75037;Laerm;64247;51.540;5.854;2023-04-25T08:10:09;52.02;45.98;65.00;;
75037;Laerm;64247;51.540;5.854;2023-04-25T08:12:10;57.40;47.77;71.85;;
75037;Laerm;64247;51.540;5.854;2023-04-25T08:14:12;55.45;46.54;70.62;;
75037;Laerm;64247;51.540;5.854;2023-04-25T08:16:15;54.92;46.83;67.30;;
75037;Laerm;64247;51.540;5.854;2023-04-25T08:18:16;55.03;46.19;69.28;;
75037;Laerm;64247;51.540;5.854;2023-04-25T08:20:17;52.04;46.61;63.47;;
75037;Laerm;64247;51.540;5.854;2023-04-25T08:22:19;51.99;46.03;65.37;;
75037;Laerm;64247;51.540;5.854;2023-04-25T08:24:28;54.03;46.29;68.68;;
75037;Laerm;64247;51.540;5.854;2023-04-25T08:26:29;52.46;45.79;66.28;;
75037;Laerm;64247;51.540;5.854;2023-04-25T08:28:31;55.25;47.02;71.15;;
75037;Laerm;64247;51.540;5.854;2023-04-25T08:30:34;58.66;50.93;68.83;;
75037;Laerm;64247;51.540;5.854;2023-04-25T08:32:36;59.96;50.14;74.29;;
75037;Laerm;64247;51.540;5.854;2023-04-25T08:34:59;55.08;46.03;68.39;;
75037;Laerm;64247;51.540;5.854;2023-04-25T08:37:00;55.12;46.58;71.50;;
75037;Laerm;64247;51.540;5.854;2023-04-25T08:39:13;64.01;45.83;79.82;;
75037;Laerm;64247;51.540;5.854;2023-04-25T08:41:23;51.93;46.24;62.49;;
75037;Laerm;64247;51.540;5.854;2023-04-25T08:43:25;50.77;46.15;61.36;;
75037;Laerm;64247;51.540;5.854;2023-04-25T08:45:27;52.24;46.22;66.10;;
75037;Laerm;64247;51.540;5.854;2023-04-25T08:47:33;53.78;47.77;65.38;;
75037;Laerm;64247;51.540;5.854;2023-04-25T08:49:35;53.40;46.07;67.89;;
75037;Laerm;64247;51.540;5.854;2023-04-25T08:51:49;54.33;46.05;67.36;;
75037;Laerm;64247;51.540;5.854;2023-04-25T08:53:58;56.28;46.13;69.09;;
75037;Laerm;64247;51.540;5.854;2023-04-25T08:56:03;55.07;45.95;69.53;;
75037;Laerm;64247;51.540;5.854;2023-04-25T08:58:11;55.91;46.46;69.02;;
75037;Laerm;64247;51.540;5.854;2023-04-25T09:00:13;55.73;46.19;68.79;;
75037;Laerm;64247;51.540;5.854;2023-04-25T09:02:17;56.98;45.63;76.96;;
75037;Laerm;64247;51.540;5.854;2023-04-25T09:04:23;53.70;46.43;67.37;;
75037;Laerm;64247;51.540;5.854;2023-04-25T09:06:24;53.24;45.93;68.38;;
75037;Laerm;64247;51.540;5.854;2023-04-25T09:08:25;61.73;46.41;73.79;;
75037;Laerm;64247;51.540;5.854;2023-04-25T09:10:28;57.64;45.82;71.33;;
75037;Laerm;64247;51.540;5.854;2023-04-25T09:12:31;52.83;46.15;69.59;;
75037;Laerm;64247;51.540;5.854;2023-04-25T09:14:33;53.14;45.49;68.00;;
75037;Laerm;64247;51.540;5.854;2023-04-25T09:17:01;52.96;46.02;67.70;;
75037;Laerm;64247;51.540;5.854;2023-04-25T09:19:29;55.77;47.38;67.38;;
75037;Laerm;64247;51.540;5.854;2023-04-25T09:21:30;53.70;46.97;68.53;;
75037;Laerm;64247;51.540;5.854;2023-04-25T09:23:45;54.95;46.83;69.31;;
75037;Laerm;64247;51.540;5.854;2023-04-25T09:25:52;55.37;46.65;69.34;;
75037;Laerm;64247;51.540;5.854;2023-04-25T09:27:54;55.43;47.33;66.96;;
75037;Laerm;64247;51.540;5.854;2023-04-25T09:30:03;54.03;46.74;68.14;;
75037;Laerm;64247;51.540;5.854;2023-04-25T09:32:27;56.28;46.99;72.03;;
75037;Laerm;64247;51.540;5.854;2023-04-25T09:34:43;53.06;46.67;67.95;;
75037;Laerm;64247;51.540;5.854;2023-04-25T09:36:45;52.36;46.31;65.51;;
75037;Laerm;64247;51.540;5.854;2023-04-25T09:39:13;50.14;46.54;63.67;;
75037;Laerm;64247;51.540;5.854;2023-04-25T09:41:23;52.69;46.60;67.37;;
75037;Laerm;64247;51.540;5.854;2023-04-25T09:43:25;50.77;46.15;64.64;;
75037;Laerm;64247;51.540;5.854;2023-04-25T09:45:29;53.06;46.95;63.20;;
75037;Laerm;64247;51.540;5.854;2023-04-25T09:47:37;52.82;46.60;65.52;;
75037;Laerm;64247;51.540;5.854;2023-04-25T09:49:41;53.87;46.36;68.53;;
75037;Laerm;64247;51.540;5.854;2023-04-25T09:51:55;54.04;46.47;68.19;;
75037;Laerm;64247;51.540;5.854;2023-04-25T09:53:57;55.83;48.56;69.86;;
75037;Laerm;64247;51.540;5.854;2023-04-25T09:56:20;59.07;48.21;70.30;;
75037;Laerm;64247;51.540;5.854;2023-04-25T09:58:24;59.03;47.11;71.38;;
75037;Laerm;64247;51.540;5.854;2023-04-25T10:00:26;55.11;47.59;67.25;;
75037;Laerm;64247;51.540;5.854;2023-04-25T10:02:28;55.65;47.14;74.97;;
75037;Laerm;64247;51.540;5.854;2023-04-25T10:04:35;59.27;47.97;78.48;;
75037;Laerm;64247;51.540;5.854;2023-04-25T10:07:06;60.54;49.48;86.09;;
75037;Laerm;64247;51.540;5.854;2023-04-25T10:09:08;62.97;49.89;89.75;;
75037;Laerm;64247;51.540;5.854;2023-04-25T10:11:09;66.72;50.53;83.28;;
75037;Laerm;64247;51.540;5.854;2023-04-25T10:13:11;56.79;48.35;76.80;;
75037;Laerm;64247;51.540;5.854;2023-04-25T10:15:13;55.05;48.72;74.55;;
75037;Laerm;64247;51.540;5.854;2023-04-25T10:17:17;55.64;49.74;68.75;;
75037;Laerm;64247;51.540;5.854;2023-04-25T10:19:19;55.78;50.65;67.58;;
75037;Laerm;64247;51.540;5.854;2023-04-25T10:21:22;54.26;48.16;62.04;;
75037;Laerm;64247;51.540;5.854;2023-04-25T10:23:24;53.42;47.51;60.68;;
75037;Laerm;64247;51.540;5.854;2023-04-25T10:25:25;54.00;49.36;70.25;;
75037;Laerm;64247;51.540;5.854;2023-04-25T10:27:27;52.10;47.70;60.22;;
75037;Laerm;64247;51.540;5.854;2023-04-25T10:29:29;56.15;49.13;67.51;;
75037;Laerm;64247;51.540;5.854;2023-04-25T10:31:30;54.70;47.90;65.14;;
75037;Laerm;64247;51.540;5.854;2023-04-25T10:33:40;53.88;46.83;72.31;;
75037;Laerm;64247;51.540;5.854;2023-04-25T10:35:45;57.67;47.55;74.17;;
75037;Laerm;64247;51.540;5.854;2023-04-25T10:38:25;56.42;48.96;67.45;;
75037;Laerm;64247;51.540;5.854;2023-04-25T10:40:27;54.89;48.61;66.46;;
75037;Laerm;64247;51.540;5.854;2023-04-25T10:42:28;55.09;47.11;67.42;;
75037;Laerm;64247;51.540;5.854;2023-04-25T10:44:31;58.66;48.90;72.00;;
75037;Laerm;64247;51.540;5.854;2023-04-25T10:46:33;53.08;48.06;65.81;;
75037;Laerm;64247;51.540;5.854;2023-04-25T10:48:35;53.64;47.46;62.65;;
75037;Laerm;64247;51.540;5.854;2023-04-25T10:50:39;55.33;47.87;66.57;;
75037;Laerm;64247;51.540;5.854;2023-04-25T10:52:40;51.65;45.66;65.98;;
75037;Laerm;64247;51.540;5.854;2023-04-25T10:54:51;52.11;46.65;65.64;;
75037;Laerm;64247;51.540;5.854;2023-04-25T10:56:52;62.79;47.43;76.04;;
75037;Laerm;64247;51.540;5.854;2023-04-25T10:59:19;53.32;45.93;66.32;;
75037;Laerm;64247;51.540;5.854;2023-04-25T11:01:25;55.30;47.87;71.61;;
75037;Laerm;64247;51.540;5.854;2023-04-25T11:03:26;54.20;46.57;65.36;;
75037;Laerm;64247;51.540;5.854;2023-04-25T11:05:34;54.39;47.14;71.30;;
75037;Laerm;64247;51.540;5.854;2023-04-25T11:07:51;55.73;47.03;78.43;;
75037;Laerm;64247;51.540;5.854;2023-04-25T11:09:53;54.91;48.69;66.28;;
75037;Laerm;64247;51.540;5.854;2023-04-25T11:11:56;53.57;48.69;70.66;;
75037;Laerm;64247;51.540;5.854;2023-04-25T11:13:58;55.93;49.54;79.44;;
75037;Laerm;64247;51.540;5.854;2023-04-25T11:16:01;59.95;48.80;87.48;;
75037;Laerm;64247;51.540;5.854;2023-04-25T11:18:02;56.37;48.80;79.38;;
75037;Laerm;64247;51.540;5.854;2023-04-25T11:20:05;67.52;49.94;99.13;;
75037;Laerm;64247;51.540;5.854;2023-04-25T11:22:12;57.96;48.91;86.53;;
75037;Laerm;64247;51.540;5.854;2023-04-25T11:24:13;53.73;47.63;69.33;;
75037;Laerm;64247;51.540;5.854;2023-04-25T11:26:13;62.99;47.69;82.53;;
75037;Laerm;64247;51.540;5.854;2023-04-25T11:28:21;54.05;47.57;67.19;;
75037;Laerm;64247;51.540;5.854;2023-04-25T11:30:26;52.94;47.35;69.29;;
75037;Laerm;64247;51.540;5.854;2023-04-25T11:32:27;54.08;48.49;63.34;;
75037;Laerm;64247;51.540;5.854;2023-04-25T11:34:31;60.11;48.42;85.70;;
75037;Laerm;64247;51.540;5.854;2023-04-25T11:36:33;59.54;48.80;85.11;;
75037;Laerm;64247;51.540;5.854;2023-04-25T11:38:34;55.51;46.91;79.77;;
75037;Laerm;64247;51.540;5.854;2023-04-25T11:40:36;61.43;49.86;85.58;;
75037;Laerm;64247;51.540;5.854;2023-04-25T11:42:46;73.66;48.11;100.90;;